Paradise, Missouri
Current Conditions -  °F | °C
As of 7:53 AM on Thursday 30 Oct 2014 (Local Time) from KMCI Reporting Station
Haze Haze  
Wind Chill: 44°   Ceiling: 11000
Heat Index: 48°   Visibility: 4mi
Dew Point: 41°   Wind: 8mph
Humidity: 77%   Direction: 200°SSW
Pressure: 30"   Gusts: NA
Location:  39.3944°N, 94.5382°W
Report Text: KMCI 301253Z 20007KT 4SM HZ SCT080 BKN110 09/05 A3000 RMK AO2 SLP158 VCSH T00890050
Loading
Personal Weather Stations






























Interactive Weather Map
Tropical Storm Tracking
New forecast layout! Learn more

10-Day Weather Forecast

Advertisements
Track Severe Weather on mobile